Wetterstation Vordersexau
Wetterdaten: Woche 23.01.17 - 29.01.17 (KW4)
Datum Zeit Temp. A. Feuchte A. Luftdruck Regen Wind Richtung Taupunkt Windchill Windben
23.01.2017 00:00 -7,2 C 87 % 1022,5 hPa 0,0 l/m 5,2 km/h O-SO -9,0 C -7,2 C 2,9 km/h
23.01.2017 01:00 -7,9 C 87 % 1022,3 hPa 0,0 l/m 1,9 km/h O-SO -9,7 C -7,9 C 1,1 km/h
23.01.2017 02:00 -8,4 C 87 % 1022,3 hPa 0,0 l/m 0,0 km/h O-SO -10,2 C -8,4 C 0,0 km/h
23.01.2017 03:00 -8,4 C 87 % 1022,4 hPa 0,0 l/m 0,0 km/h O-SO -10,2 C -8,4 C 0,0 km/h
23.01.2017 04:00 -8,1 C 87 % 1022,2 hPa 0,0 l/m 0,0 km/h O-SO -9,9 C -8,1 C 0,0 km/h
23.01.2017 05:00 -8,4 C 87 % 1022,2 hPa 0,0 l/m 1,9 km/h SO -10,2 C -8,4 C 1,1 km/h
23.01.2017 06:00 -8,7 C 87 % 1022,4 hPa 0,0 l/m 0,6 km/h O-SO -10,5 C -8,7 C 0,4 km/h
23.01.2017 07:00 -8,2 C 87 % 1022,4 hPa 0,0 l/m 0,0 km/h O-SO -10,0 C -8,2 C 0,0 km/h
23.01.2017 08:00 -8,6 C 87 % 1022,4 hPa 0,0 l/m 0,0 km/h SO -10,4 C -8,6 C 0,0 km/h
23.01.2017 09:00 -8,7 C 87 % 1022,7 hPa 0,0 l/m 7,1 km/h O-SO -10,5 C -9,6 C 4,0 km/h
23.01.2017 10:00 -8,1 C 87 % 1023,2 hPa 0,0 l/m 0,0 km/h SO -9,9 C -8,1 C 0,0 km/h
23.01.2017 11:00 -5,9 C 87 % 1023,1 hPa 0,0 l/m 0,0 km/h SO -7,7 C -5,9 C 0,0 km/h
23.01.2017 12:00 -4,2 C 86 % 1022,8 hPa 0,0 l/m 0,0 km/h W-SW -6,2 C -4,2 C 0,0 km/h
23.01.2017 13:00 -4,5 C 85 % 1022,3 hPa 0,0 l/m 0,0 km/h S-SO -6,6 C -4,5 C 0,0 km/h
23.01.2017 14:00 -4,4 C 84 % 1021,9 hPa 0,0 l/m 0,0 km/h N-NO -6,7 C -4,4 C 0,0 km/h
23.01.2017 15:00 -4,7 C 85 % 1021,9 hPa 0,0 l/m 0,0 km/h SO -6,8 C -4,7 C 0,0 km/h
23.01.2017 16:00 -5,1 C 85 % 1022,1 hPa 0,0 l/m 0,0 km/h W -7,2 C -5,1 C 0,0 km/h
23.01.2017 17:00 -5,7 C 86 % 1022,3 hPa 0,0 l/m 0,0 km/h SO -7,7 C -5,7 C 0,0 km/h
23.01.2017 18:00 -5,9 C 86 % 1022,4 hPa 0,0 l/m 0,0 km/h SO -7,9 C -5,9 C 0,0 km/h
23.01.2017 19:00 -6,1 C 87 % 1022,4 hPa 0,0 l/m 0,0 km/h S-SO -7,9 C -6,1 C 0,0 km/h
23.01.2017 20:00 -6,2 C 87 % 1022,4 hPa 0,0 l/m 0,0 km/h S-SO -8,0 C -6,2 C 0,0 km/h
23.01.2017 21:00 -6,4 C 87 % 1022,4 hPa 0,0 l/m 0,0 km/h SO -8,2 C -6,4 C 0,0 km/h
23.01.2017 22:00 -6,7 C 87 % 1022,4 hPa 0,0 l/m 0,0 km/h O-SO -8,5 C -6,7 C 0,0 km/h
23.01.2017 23:00 -7,0 C 87 % 1022,6 hPa 0,0 l/m 0,0 km/h O-SO -8,8 C -7,0 C 0,0 km/h
24.01.2017 00:00 -7,5 C 87 % 1022,8 hPa 0,0 l/m 6,5 km/h O-SO -9,3 C -7,6 C 3,6 km/h
24.01.2017 01:00 -7,5 C 87 % 1023,0 hPa 0,0 l/m 10,4 km/h SO -9,3 C -12,1 C 5,8 km/h
24.01.2017 02:00 -7,7 C 87 % 1023,0 hPa 0,0 l/m 14,3 km/h SO -9,5 C -15,8 C 7,9 km/h
24.01.2017 03:00 -7,9 C 87 % 1023,3 hPa 0,0 l/m 0,0 km/h O-SO -9,7 C -7,9 C 0,0 km/h
24.01.2017 04:00 -7,6 C 87 % 1023,1 hPa 0,0 l/m 0,0 km/h O-SO -9,4 C -7,6 C 0,0 km/h
24.01.2017 05:00 -8,1 C 86 % 1023,3 hPa 0,0 l/m 0,0 km/h O-SO -10,0 C -8,1 C 0,0 km/h
24.01.2017 06:00 -8,2 C 86 % 1023,1 hPa 0,0 l/m 0,0 km/h O-SO -10,1 C -8,2 C 0,0 km/h
24.01.2017 07:00 -7,7 C 86 % 1023,6 hPa 0,0 l/m 0,6 km/h O-SO -9,6 C -7,7 C 0,4 km/h
24.01.2017 08:00 -7,8 C 86 % 1024,1 hPa 0,0 l/m 0,0 km/h O-SO -9,7 C -7,8 C 0,0 km/h
24.01.2017 09:00 -7,2 C 85 % 1024,4 hPa 0,0 l/m 0,0 km/h O-SO -9,3 C -7,2 C 0,0 km/h
24.01.2017 10:00 -6,4 C 85 % 1024,6 hPa 0,0 l/m 0,0 km/h O-SO -8,5 C -6,4 C 0,0 km/h
24.01.2017 11:00 -5,4 C 84 % 1024,5 hPa 0,0 l/m 3,2 km/h O-SO -7,7 C -5,4 C 1,8 km/h
24.01.2017 12:00 -3,9 C 82 % 1024,4 hPa 0,0 l/m 0,0 km/h O-NO -6,5 C -3,9 C 0,0 km/h
24.01.2017 13:00 -3,4 C 81 % 1024,0 hPa 0,0 l/m 0,0 km/h N-NO -6,2 C -3,4 C 0,0 km/h
24.01.2017 14:00 -2,8 C 79 % 1023,8 hPa 0,0 l/m 0,0 km/h N-NW -5,9 C -2,8 C 0,0 km/h
24.01.2017 15:00 -2,9 C 79 % 1023,8 hPa 0,0 l/m 0,0 km/h N-NW -6,0 C -2,9 C 0,0 km/h
24.01.2017 16:00 -2,8 C 79 % 1024,3 hPa 0,0 l/m 0,0 km/h N-NW -5,9 C -2,8 C 0,0 km/h
24.01.2017 17:00 -3,7 C 80 % 1024,5 hPa 0,0 l/m 0,0 km/h N-NW -6,6 C -3,7 C 0,0 km/h
24.01.2017 18:00 -4,1 C 81 % 1024,8 hPa 0,0 l/m 0,0 km/h N-NW -6,9 C -4,1 C 0,0 km/h
24.01.2017 19:00 -4,2 C 82 % 1024,7 hPa 0,0 l/m 0,0 km/h N-NW -6,8 C -4,2 C 0,0 km/h
24.01.2017 20:00 -4,2 C 83 % 1024,8 hPa 0,0 l/m 0,0 km/h N-NW -6,6 C -4,2 C 0,0 km/h
24.01.2017 21:00 -4,4 C 83 % 1024,9 hPa 0,0 l/m 0,0 km/h N-NW -6,8 C -4,4 C 0,0 km/h
24.01.2017 22:00 -4,5 C 83 % 1024,9 hPa 0,0 l/m 0,0 km/h N-NW -6,9 C -4,5 C 0,0 km/h
24.01.2017 23:00 -5,1 C 83 % 1024,8 hPa 0,0 l/m 0,0 km/h N-NW -7,5 C -5,1 C 0,0 km/h
25.01.2017 00:00 -6,9 C 83 % 1024,5 hPa 0,0 l/m 0,0 km/h N-NW -9,3 C -6,9 C 0,0 km/h
25.01.2017 01:00 -9,1 C 85 % 1024,4 hPa 0,0 l/m 0,0 km/h N-NW -11,1 C -9,1 C 0,0 km/h
25.01.2017 02:00 -10,2 C 85 % 1024,4 hPa 0,0 l/m 0,0 km/h O-SO -12,2 C -10,2 C 0,0 km/h
25.01.2017 03:00 -10,7 C 86 % 1024,4 hPa 0,0 l/m 0,0 km/h O-SO -12,6 C -10,7 C 0,0 km/h
25.01.2017 04:00 -10,5 C 86 % 1024,4 hPa 0,0 l/m 0,0 km/h O-SO -12,4 C -10,5 C 0,0 km/h
25.01.2017 05:00 -11,1 C 86 % 1024,3 hPa 0,0 l/m 0,0 km/h O-SO -13,0 C -11,1 C 0,0 km/h
25.01.2017 06:00 -9,1 C 86 % 1024,5 hPa 0,0 l/m 0,0 km/h O-SO -11,0 C -9,1 C 0,0 km/h
25.01.2017 07:00 -8,4 C 86 % 1024,4 hPa 0,0 l/m 0,0 km/h O-SO -10,3 C -8,4 C 0,0 km/h
25.01.2017 08:00 -9,7 C 86 % 1024,8 hPa 0,0 l/m 0,0 km/h O-SO -11,6 C -9,7 C 0,0 km/h
25.01.2017 09:00 -8,9 C 87 % 1024,7 hPa 0,0 l/m 0,0 km/h SO -10,7 C -8,9 C 0,0 km/h
25.01.2017 10:00 -6,4 C 87 % 1025,2 hPa 0,0 l/m 0,0 km/h SO -8,2 C -6,4 C 0,0 km/h
25.01.2017 11:00 -2,7 C 84 % 1025,4 hPa 0,0 l/m 0,0 km/h SO -5,0 C -2,7 C 0,0 km/h
25.01.2017 12:00 -2,0 C 76 % 1025,1 hPa 0,0 l/m 0,0 km/h SO -5,6 C -2,0 C 0,0 km/h
25.01.2017 13:00 -1,1 C 74 % 1024,4 hPa 0,0 l/m 0,0 km/h S-SO -5,1 C -1,1 C 0,0 km/h
25.01.2017 14:00 -1,9 C 73 % 1024,1 hPa 0,0 l/m 0,0 km/h S-SO -6,1 C -1,9 C 0,0 km/h
25.01.2017 15:00 -2,4 C 73 % 1024,0 hPa 0,0 l/m 0,0 km/h S-SO -6,6 C -2,4 C 0,0 km/h
25.01.2017 16:00 -3,3 C 76 % 1023,9 hPa 0,0 l/m 0,0 km/h S-SO -6,9 C -3,3 C 0,0 km/h
25.01.2017 17:00 -3,9 C 77 % 1024,2 hPa 0,0 l/m 0,0 km/h S-SO -7,3 C -3,9 C 0,0 km/h
25.01.2017 18:00 -4,7 C 78 % 1024,4 hPa 0,0 l/m 0,0 km/h NO -7,9 C -4,7 C 0,0 km/h
25.01.2017 19:00 -7,5 C 80 % 1024,3 hPa 0,0 l/m 0,0 km/h NO -10,3 C -7,5 C 0,0 km/h
25.01.2017 20:00 -9,5 C 81 % 1024,5 hPa 0,0 l/m 0,0 km/h NO -12,1 C -9,5 C 0,0 km/h
25.01.2017 21:00 -9,3 C 83 % 1024,9 hPa 0,0 l/m 0,0 km/h O-SO -11,6 C -9,3 C 0,0 km/h
25.01.2017 22:00 -9,2 C 84 % 1024,7 hPa 0,0 l/m 0,0 km/h O-SO -11,4 C -9,2 C 0,0 km/h
25.01.2017 23:00 -8,9 C 85 % 1024,7 hPa 0,0 l/m 0,0 km/h O-SO -10,9 C -8,9 C 0,0 km/h
26.01.2017 00:00 -9,1 C 85 % 1024,6 hPa 0,0 l/m 0,0 km/h O-SO -11,1 C -9,1 C 0,0 km/h
26.01.2017 01:00 -8,9 C 84 % 1024,4 hPa 0,0 l/m 0,0 km/h O-SO -11,1 C -8,9 C 0,0 km/h
26.01.2017 02:00 -10,4 C 84 % 1024,4 hPa 0,0 l/m 0,0 km/h O-SO -12,6 C -10,4 C 0,0 km/h
26.01.2017 03:00 -11,3 C 85 % 1024,1 hPa 0,0 l/m 0,0 km/h O-SO -13,3 C -11,3 C 0,0 km/h
26.01.2017 04:00 -11,6 C 85 % 1023,8 hPa 0,0 l/m 0,0 km/h O-SO -13,6 C -11,6 C 0,0 km/h
26.01.2017 05:00 -12,2 C 85 % 1023,4 hPa 0,0 l/m 0,0 km/h O-SO -14,2 C -12,2 C 0,0 km/h
26.01.2017 06:00 -12,2 C 86 % 1023,5 hPa 0,0 l/m 0,0 km/h O-SO -14,0 C -12,2 C 0,0 km/h
26.01.2017 07:00 -12,6 C 86 % 1022,9 hPa 0,0 l/m 0,0 km/h O -14,4 C -12,6 C 0,0 km/h
26.01.2017 08:00 -12,9 C 86 % 1022,6 hPa 0,0 l/m 0,0 km/h O-SO -14,7 C -12,9 C 0,0 km/h
26.01.2017 09:00 -10,9 C 86 % 1022,6 hPa 0,0 l/m 0,0 km/h O-SO -12,8 C -10,9 C 0,0 km/h
26.01.2017 10:00 -5,1 C 81 % 1022,1 hPa 0,0 l/m 0,0 km/h SO -7,8 C -5,1 C 0,0 km/h
26.01.2017 11:00 -0,7 C 72 % 1021,9 hPa 0,0 l/m 0,0 km/h SO -5,1 C -0,7 C 0,0 km/h
26.01.2017 12:00 2,9 C 61 % 1021,3 hPa 0,0 l/m 0,0 km/h W-SW -3,9 C 2,9 C 0,0 km/h
26.01.2017 13:00 2,8 C 57 % 1020,5 hPa 0,0 l/m 0,0 km/h NW -4,9 C 2,8 C 0,0 km/h
26.01.2017 14:00 3,8 C 55 % 1019,8 hPa 0,0 l/m 0,0 km/h W -4,4 C 3,8 C 0,0 km/h
26.01.2017 15:00 4,4 C 54 % 1019,8 hPa 0,0 l/m 0,0 km/h W -4,1 C 4,4 C 0,0 km/h
26.01.2017 16:00 3,1 C 54 % 1019,4 hPa 0,0 l/m 0,0 km/h W -5,3 C 3,1 C 0,0 km/h
26.01.2017 17:00 -2,4 C 62 % 1019,6 hPa 0,0 l/m 0,0 km/h W -8,7 C -2,4 C 0,0 km/h
26.01.2017 18:00 -6,5 C 72 % 1019,6 hPa 0,0 l/m 0,0 km/h W -10,7 C -6,5 C 0,0 km/h
26.01.2017 19:00 -7,9 C 76 % 1019,2 hPa 0,0 l/m 0,0 km/h W -11,4 C -7,9 C 0,0 km/h
26.01.2017 20:00 -8,6 C 79 % 1018,9 hPa 0,0 l/m 0,0 km/h W -11,6 C -8,6 C 0,0 km/h
26.01.2017 21:00 -9,4 C 82 % 1018,7 hPa 0,0 l/m 0,0 km/h S-SW -11,9 C -9,4 C 0,0 km/h
26.01.2017 22:00 -9,8 C 83 % 1018,4 hPa 0,0 l/m 0,0 km/h S-SW -12,1 C -9,8 C 0,0 km/h
26.01.2017 23:00 -10,4 C 83 % 1018,3 hPa 0,0 l/m 0,0 km/h SO -12,7 C -10,4 C 0,0 km/h
27.01.2017 00:00 -10,5 C 84 % 1018,1 hPa 0,0 l/m 0,0 km/h SO -12,7 C -10,5 C 0,0 km/h
27.01.2017 01:00 -10,1 C 85 % 1018,2 hPa 0,0 l/m 0,0 km/h SO -12,1 C -10,1 C 0,0 km/h
27.01.2017 02:00 -10,4 C 85 % 1018,4 hPa 0,0 l/m 0,0 km/h O-SO -12,4 C -10,4 C 0,0 km/h
27.01.2017 03:00 -10,1 C 85 % 1018,0 hPa 0,0 l/m 0,0 km/h O-SO -12,1 C -10,1 C 0,0 km/h
27.01.2017 04:00 -10,2 C 86 % 1017,2 hPa 0,0 l/m 0,0 km/h NO -12,1 C -10,2 C 0,0 km/h
27.01.2017 05:00 -10,1 C 86 % 1017,3 hPa 0,0 l/m 0,0 km/h NO -12,0 C -10,1 C 0,0 km/h
27.01.2017 06:00 -10,1 C 86 % 1017,5 hPa 0,0 l/m 0,0 km/h NO -12,0 C -10,1 C 0,0 km/h
27.01.2017 07:00 -10,1 C 86 % 1017,6 hPa 0,0 l/m 0,0 km/h NO -12,0 C -10,1 C 0,0 km/h
27.01.2017 08:00 -9,6 C 86 % 1018,3 hPa 0,0 l/m 0,0 km/h NO -11,5 C -9,6 C 0,0 km/h
27.01.2017 09:00 -7,5 C 87 % 1018,8 hPa 0,0 l/m 0,0 km/h NO -9,3 C -7,5 C 0,0 km/h
27.01.2017 10:00 -3,1 C 86 % 1019,0 hPa 0,0 l/m 0,0 km/h NO -5,1 C -3,1 C 0,0 km/h
27.01.2017 11:00 0,2 C 80 % 1019,0 hPa 0,0 l/m 0,0 km/h W-NW -2,8 C 0,2 C 0,0 km/h
27.01.2017 12:00 3,9 C 63 % 1018,6 hPa 0,0 l/m 0,0 km/h N-NW -2,5 C 3,9 C 0,0 km/h
27.01.2017 13:00 5,4 C 62 % 1017,5 hPa 0,0 l/m 0,0 km/h N-NW -1,3 C 5,4 C 0,0 km/h
27.01.2017 14:00 5,8 C 56 % 1017,1 hPa 0,0 l/m 0,0 km/h N-NW -2,3 C 5,8 C 0,0 km/h
27.01.2017 15:00 5,4 C 56 % 1016,6 hPa 0,0 l/m 0,0 km/h N-NW -2,7 C 5,4 C 0,0 km/h
27.01.2017 16:00 1,9 C 65 % 1016,8 hPa 0,0 l/m 0,0 km/h N-NW -4,0 C 1,9 C 0,0 km/h
27.01.2017 17:00 -1,4 C 70 % 1016,6 hPa 0,0 l/m 0,0 km/h N-NW -6,1 C -1,4 C 0,0 km/h
27.01.2017 18:00 -3,2 C 75 % 1016,7 hPa 0,0 l/m 0,0 km/h N-NW -7,0 C -3,2 C 0,0 km/h
27.01.2017 19:00 -4,2 C 79 % 1016,9 hPa 0,0 l/m 0,0 km/h N-NW -7,3 C -4,2 C 0,0 km/h
27.01.2017 20:00 -5,1 C 81 % 1016,8 hPa 0,0 l/m 0,0 km/h N-NW -7,8 C -5,1 C 0,0 km/h
27.01.2017 21:00 -5,4 C 82 % 1016,6 hPa 0,0 l/m 0,0 km/h N-NW -8,0 C -5,4 C 0,0 km/h
27.01.2017 22:00 -6,1 C 83 % 1016,6 hPa 0,0 l/m 0,0 km/h N-NW -8,5 C -6,1 C 0,0 km/h
27.01.2017 23:00 -6,7 C 84 % 1016,6 hPa 0,0 l/m 0,0 km/h N-NW -8,9 C -6,7 C 0,0 km/h
28.01.2017 00:00 -7,4 C 85 % 1016,7 hPa 0,0 l/m 0,0 km/h N-NW -9,5 C -7,4 C 0,0 km/h
28.01.2017 01:00 -6,5 C 85 % 1016,5 hPa 0,0 l/m 0,0 km/h N-NW -8,6 C -6,5 C 0,0 km/h
28.01.2017 02:00 -6,6 C 86 % 1016,3 hPa 0,0 l/m 0,0 km/h N-NW -8,5 C -6,6 C 0,0 km/h
28.01.2017 03:00 -6,6 C 86 % 1016,2 hPa 0,0 l/m 0,0 km/h N-NW -8,5 C -6,6 C 0,0 km/h
28.01.2017 04:00 -6,6 C 86 % 1016,2 hPa 0,0 l/m 0,0 km/h N-NW -8,5 C -6,6 C 0,0 km/h
28.01.2017 05:00 -6,5 C 86 % 1016,3 hPa 0,0 l/m 0,0 km/h N-NW -8,4 C -6,5 C 0,0 km/h
28.01.2017 06:00 -6,1 C 87 % 1016,5 hPa 0,0 l/m 0,0 km/h N-NW -7,9 C -6,1 C 0,0 km/h
28.01.2017 07:00 -5,9 C 87 % 1016,8 hPa 0,0 l/m 0,0 km/h N-NW -7,7 C -5,9 C 0,0 km/h
28.01.2017 08:00 -5,1 C 87 % 1016,9 hPa 0,0 l/m 0,0 km/h N-NW -6,9 C -5,1 C 0,0 km/h
28.01.2017 09:00 -3,6 C 87 % 1016,8 hPa 0,0 l/m 0,0 km/h N-NW -5,4 C -3,6 C 0,0 km/h
28.01.2017 10:00 3,2 C 83 % 1017,2 hPa 0,0 l/m 0,0 km/h N-NW 0,6 C 3,2 C 0,0 km/h
28.01.2017 11:00 4,9 C 73 % 1017,3 hPa 0,0 l/m 0,0 km/h N-NW 0,5 C 4,9 C 0,0 km/h
28.01.2017 12:00 7,9 C 61 % 1016,8 hPa 0,0 l/m 0,0 km/h N-NW 0,9 C 7,9 C 0,0 km/h
28.01.2017 13:00 9,1 C 56 % 1016,3 hPa 0,0 l/m 0,0 km/h N-NW 0,8 C 9,1 C 0,0 km/h
28.01.2017 14:00 9,8 C 52 % 1015,8 hPa 0,0 l/m 0,0 km/h N-NW 0,4 C 9,8 C 0,0 km/h
28.01.2017 15:00 11,5 C 48 % 1016,1 hPa 0,0 l/m 0,0 km/h N-NW 0,9 C 11,5 C 0,0 km/h
28.01.2017 16:00 11,6 C 48 % 1016,5 hPa 0,0 l/m 0,0 km/h N-NW 1,0 C 11,6 C 0,0 km/h
28.01.2017 17:00 3,6 C 62 % 1016,8 hPa 0,0 l/m 0,0 km/h N-NW -3,0 C 3,6 C 0,0 km/h
28.01.2017 18:00 -0,6 C 75 % 1017,2 hPa 0,0 l/m 0,0 km/h N-NW -4,5 C -0,6 C 0,0 km/h
28.01.2017 19:00 -1,9 C 79 % 1017,5 hPa 0,0 l/m 0,0 km/h N-NW -5,0 C -1,9 C 0,0 km/h
28.01.2017 20:00 -2,8 C 82 % 1017,9 hPa 0,0 l/m 0,0 km/h N-NW -5,4 C -2,8 C 0,0 km/h
28.01.2017 21:00 -2,8 C 84 % 1018,3 hPa 0,0 l/m 0,0 km/h NO -5,1 C -2,8 C 0,0 km/h
28.01.2017 22:00 -2,9 C 85 % 1018,6 hPa 0,0 l/m 0,0 km/h S-SO -5,1 C -2,9 C 0,0 km/h
28.01.2017 23:00 -3,3 C 86 % 1019,0 hPa 0,0 l/m 0,0 km/h SO -5,3 C -3,3 C 0,0 km/h
29.01.2017 00:00 -4,1 C 86 % 1019,3 hPa 0,0 l/m 0,0 km/h SO -6,1 C -4,1 C 0,0 km/h
29.01.2017 01:00 -4,1 C 86 % 1019,3 hPa 0,0 l/m 0,0 km/h SO -6,1 C -4,1 C 0,0 km/h
29.01.2017 02:00 -4,1 C 86 % 1019,1 hPa 0,0 l/m 0,0 km/h SO -6,1 C -4,1 C 0,0 km/h
29.01.2017 03:00 -4,4 C 87 % 1019,0 hPa 0,0 l/m 0,0 km/h SO -6,2 C -4,4 C 0,0 km/h
29.01.2017 04:00 -3,5 C 87 % 1019,1 hPa 0,0 l/m 0,0 km/h O-SO -5,3 C -3,5 C 0,0 km/h
29.01.2017 05:00 -1,1 C 86 % 1019,1 hPa 0,0 l/m 0,0 km/h O-SO -3,1 C -1,1 C 0,0 km/h
29.01.2017 06:00 -1,1 C 86 % 1019,5 hPa 0,0 l/m 0,6 km/h O-SO -3,1 C -1,1 C 0,4 km/h
29.01.2017 07:00 -1,3 C 86 % 1019,9 hPa 0,0 l/m 0,0 km/h O-SO -3,3 C -1,3 C 0,0 km/h
29.01.2017 08:00 -1,4 C 86 % 1020,1 hPa 0,0 l/m 0,0 km/h SO -3,4 C -1,4 C 0,0 km/h
29.01.2017 09:00 1,0 C 86 % 1020,2 hPa 0,0 l/m 3,2 km/h SO -1,1 C 1,0 C 1,8 km/h
29.01.2017 10:00 2,2 C 86 % 1020,5 hPa 0,0 l/m 0,0 km/h O-SO 0,1 C 2,2 C 0,0 km/h
29.01.2017 11:00 2,5 C 86 % 1020,6 hPa 0,0 l/m 0,0 km/h O-NO 0,4 C 2,5 C 0,0 km/h
29.01.2017 12:00 3,8 C 85 % 1019,9 hPa 0,0 l/m 0,0 km/h O-NO 1,5 C 3,8 C 0,0 km/h
29.01.2017 13:00 4,6 C 84 % 1020,0 hPa 0,0 l/m 0,0 km/h O-SO 2,1 C 4,6 C 0,0 km/h
29.01.2017 14:00 6,1 C 82 % 1019,0 hPa 0,0 l/m 0,0 km/h O-SO 3,3 C 6,1 C 0,0 km/h
29.01.2017 15:00 13,4 C 61 % 1019,0 hPa 0,0 l/m 0,0 km/h O-SO 6,0 C 13,4 C 0,0 km/h
29.01.2017 16:00 11,3 C 63 % 1019,1 hPa 0,0 l/m 0,0 km/h O-SO 4,5 C 11,3 C 0,0 km/h
29.01.2017 17:00 5,4 C 73 % 1019,5 hPa 0,0 l/m 0,0 km/h O-SO 1,0 C 5,4 C 0,0 km/h
29.01.2017 18:00 3,5 C 80 % 1019,5 hPa 0,0 l/m 0,0 km/h O-NO 0,4 C 3,5 C 0,0 km/h
29.01.2017 19:00 2,8 C 83 % 1019,2 hPa 0,0 l/m 0,0 km/h O-SO 0,2 C 2,8 C 0,0 km/h
29.01.2017 20:00 1,8 C 85 % 1018,7 hPa 0,0 l/m 0,0 km/h O-SO -0,4 C 1,8 C 0,0 km/h
29.01.2017 21:00 1,1 C 86 % 1018,6 hPa 0,0 l/m 0,0 km/h N-NO -1,0 C 1,1 C 0,0 km/h
29.01.2017 22:00 0,1 C 86 % 1018,8 hPa 0,0 l/m 0,0 km/h O-NO -2,0 C 0,1 C 0,0 km/h
29.01.2017 23:00 0,5 C 86 % 1018,2 hPa 0,0 l/m 0,0 km/h O-SO -1,6 C 0,5 C 0,0 km/h
Min-Datum _ 26.01.17 28.01.17 28.01.17 - 23.01.17 - 26.01.17 24.01.17 23.01.17
_ Min-Zeit 08:10 15:10 14:10 - 02:10 - 08:10 02:10 02:10
Minimum _ -12,9 C 48 % 1015,8 hPa - 0,0 km/h - -14,7 C -15,8 C 0,0 km/h
Max-Datum _ 29.01.17 23.01.17 25.01.17 23.01.17 24.01.17 - 29.01.17 29.01.17 24.01.17
_ Max-Zeit 15:10 00:10 11:10 00:10 02:10 - 15:10 15:10 02:10
Maximum _ 13,4 C 87 % 1025,4 hPa 0,0 l/m 14,3 km/h
SO
- 6,0 C 13,4 C 7,9 km/h
SO
Durchschnitt _ -4,2 C 81 % 1020,9 hPa #0,0 l/m 0,3 km/h O-SO -7,2 C -4,3 C 0,2 km/h
www.sexauwetter.de